createdAt,value
2018-04-24T00:02:22.120Z,13.70
2018-04-24T00:04:50.700Z,13.50
2018-04-24T00:07:19.235Z,13.50
2018-04-24T00:09:47.015Z,13.50
2018-04-24T00:12:15.571Z,13.40
2018-04-24T00:14:43.308Z,13.40
2018-04-24T00:17:11.055Z,13.40
2018-04-24T00:19:38.845Z,13.30
2018-04-24T00:22:06.593Z,13.30
2018-04-24T00:24:34.416Z,13.20
2018-04-24T00:27:02.986Z,13.20
2018-04-24T00:29:30.722Z,13.20
2018-04-24T00:31:58.506Z,13.20
2018-04-24T00:34:27.089Z,13.10
2018-04-24T00:36:55.684Z,13.00
2018-04-24T00:39:24.186Z,13.00
2018-04-24T00:41:51.971Z,13.00
2018-04-24T00:44:19.700Z,13.00
2018-04-24T00:46:47.432Z,12.90
2018-04-24T00:49:15.225Z,12.90
2018-04-24T00:51:42.960Z,12.90
2018-04-24T00:54:10.706Z,12.80
2018-04-24T00:56:38.494Z,12.80
2018-04-24T00:59:06.996Z,12.70
2018-04-24T01:01:34.783Z,12.80
2018-04-24T01:04:02.574Z,12.70
2018-04-24T01:06:30.314Z,12.60
2018-04-24T01:08:58.051Z,12.60
2018-04-24T01:11:25.847Z,12.60
2018-04-24T01:13:54.344Z,12.50
2018-04-24T01:16:22.180Z,12.50
2018-04-24T01:18:49.987Z,12.40
2018-04-24T01:21:18.554Z,12.40
2018-04-24T01:23:46.330Z,12.40
2018-04-24T01:26:14.907Z,12.30
2018-04-24T01:28:42.656Z,12.30
2018-04-24T01:31:10.405Z,12.20
2018-04-24T01:33:38.199Z,12.20
2018-04-24T01:36:06.714Z,12.10
2018-04-24T01:38:34.456Z,12.10
2018-04-24T01:41:02.666Z,12.00
2018-04-24T01:43:30.443Z,12.00
2018-04-24T01:45:58.180Z,11.90
2018-04-24T01:48:25.975Z,11.90
2018-04-24T01:50:53.738Z,11.80
2018-04-24T01:53:21.469Z,11.70
2018-04-24T01:55:49.268Z,11.70
2018-04-24T01:58:17.053Z,11.70
2018-04-24T02:00:45.556Z,11.70
2018-04-24T02:03:13.352Z,11.70
2018-04-24T02:05:41.080Z,11.70
2018-04-24T02:08:08.825Z,11.70
2018-04-24T02:10:36.636Z,11.60
2018-04-24T02:13:04.380Z,11.60
2018-04-24T02:15:32.106Z,11.50
2018-04-24T02:17:59.924Z,11.50
2018-04-24T02:20:27.656Z,11.50
2018-04-24T02:22:55.396Z,11.50
2018-04-24T02:25:23.187Z,11.40
2018-04-24T02:27:50.922Z,11.40
2018-04-24T02:30:18.673Z,11.30
2018-04-24T02:32:47.255Z,11.20
2018-04-24T02:35:15.752Z,11.20
2018-04-24T02:37:43.486Z,11.10
2018-04-24T02:40:12.043Z,11.00
2018-04-24T02:42:39.823Z,11.10
2018-04-24T02:45:08.414Z,11.00
2018-04-24T02:47:36.970Z,11.00
2018-04-24T02:50:04.794Z,10.90
2018-04-24T02:52:32.556Z,10.90
2018-04-24T02:55:00.361Z,10.90
2018-04-24T02:57:28.104Z,10.80
2018-04-24T02:59:55.843Z,10.80
2018-04-24T03:02:23.644Z,10.80
2018-04-24T03:04:51.385Z,10.70
2018-04-24T03:07:19.131Z,10.70
2018-04-24T03:09:46.947Z,10.60
2018-04-24T03:12:15.468Z,10.60
2018-04-24T03:14:43.198Z,10.60
2018-04-24T03:17:11.749Z,10.60
2018-04-24T03:19:39.485Z,10.50
2018-04-24T03:22:07.238Z,10.50
2018-04-24T03:24:35.036Z,10.40
2018-04-24T03:27:02.772Z,10.40
2018-04-24T03:29:30.518Z,10.40
2018-04-24T03:31:58.321Z,10.40
2018-04-24T03:34:26.060Z,10.40
2018-04-24T03:36:53.809Z,10.40
2018-04-24T03:39:21.596Z,10.40
2018-04-24T03:41:49.333Z,10.40
2018-04-24T03:44:17.065Z,10.50
2018-04-24T03:46:44.858Z,10.50
2018-04-24T03:49:12.591Z,10.50
2018-04-24T03:51:40.332Z,10.50
2018-04-24T03:54:08.901Z,10.60
2018-04-24T03:56:36.656Z,10.50
2018-04-24T03:59:04.424Z,10.60
2018-04-24T04:01:32.236Z,10.60
2018-04-24T04:03:59.984Z,10.60
2018-04-24T04:06:27.720Z,10.70
2018-04-24T04:08:56.279Z,10.90
2018-04-24T04:11:24.066Z,10.90
2018-04-24T04:13:52.559Z,11.00
2018-04-24T04:16:20.362Z,11.00
2018-04-24T04:18:59.809Z,11.10
2018-04-24T04:21:39.428Z,11.30
2018-04-24T04:24:18.949Z,11.40
2018-04-24T04:26:46.744Z,11.50
2018-04-24T04:29:14.479Z,11.60
2018-04-24T04:31:43.867Z,12.00
2018-04-24T04:34:11.651Z,12.00
2018-04-24T04:36:39.385Z,12.20
2018-04-24T04:39:07.127Z,12.50
2018-04-24T04:41:34.926Z,12.60
2018-04-24T04:44:02.668Z,12.80
2018-04-24T04:46:30.412Z,13.00
2018-04-24T04:48:58.984Z,13.10
2018-04-24T04:51:26.717Z,13.10
2018-04-24T04:53:54.473Z,13.30
2018-04-24T04:56:22.263Z,13.60
2018-04-24T04:58:50.011Z,13.90
2018-04-24T05:01:17.743Z,14.20
2018-04-24T05:03:45.628Z,14.60
2018-04-24T05:06:13.368Z,14.90
2018-04-24T05:08:41.092Z,15.30
2018-04-24T05:11:08.882Z,15.60
2018-04-24T05:13:36.623Z,15.90
2018-04-24T05:16:05.125Z,16.50
2018-04-24T05:18:32.916Z,16.40
2018-04-24T05:21:00.659Z,16.70
2018-04-24T05:23:28.395Z,17.10
2018-04-24T05:25:56.184Z,17.60
2018-04-24T05:28:23.920Z,18.10
2018-04-24T05:30:51.684Z,18.50
2018-04-24T05:33:19.499Z,19.10
2018-04-24T05:35:47.341Z,19.60
2018-04-24T05:38:15.057Z,20.20
2018-04-24T05:40:43.672Z,22.00
2018-04-24T05:43:11.430Z,21.90
2018-04-24T05:45:39.195Z,23.20
2018-04-24T05:48:07.017Z,24.40
2018-04-24T05:50:35.536Z,26.60
2018-04-24T05:53:04.119Z,27.40
2018-04-24T05:55:31.905Z,27.40
2018-04-24T05:59:44.013Z,28.70
2018-04-24T06:02:11.878Z,27.40
2018-04-24T06:04:39.618Z,27.80
2018-04-24T06:07:07.352Z,29.00
2018-04-24T06:10:25.848Z,29.70
2018-04-24T06:12:53.612Z,27.50
2018-04-24T06:15:21.473Z,26.70
2018-04-24T06:17:49.341Z,26.50
2018-04-24T06:20:17.168Z,26.50
2018-04-24T06:22:45.034Z,26.50
2018-04-24T06:25:12.932Z,26.70
2018-04-24T06:27:40.794Z,26.80
2018-04-24T06:30:08.660Z,26.90
2018-04-24T06:32:36.525Z,27.10
2018-04-24T06:35:04.390Z,27.30
2018-04-24T06:37:32.257Z,27.50
2018-04-24T06:40:00.119Z,27.80
2018-04-24T06:42:27.985Z,28.10
2018-04-24T06:44:55.847Z,28.50
2018-04-24T06:47:23.816Z,28.90
2018-04-24T06:49:51.573Z,29.30
2018-04-24T06:52:19.436Z,29.80
2018-04-24T06:54:47.300Z,30.40
2018-04-24T06:57:15.168Z,31.00
2018-04-24T06:59:42.927Z,31.50
2018-04-24T07:02:10.791Z,32.00
2018-04-24T07:04:38.552Z,32.40
2018-04-24T07:07:06.419Z,32.80
2018-04-24T07:09:34.281Z,33.10
2018-04-24T07:12:02.179Z,33.50
2018-04-24T07:14:30.725Z,33.00
2018-04-24T07:16:58.920Z,33.00
2018-04-24T07:19:27.584Z,31.50
2018-04-24T07:21:56.164Z,30.90
2018-04-24T07:24:24.231Z,30.90
2018-04-24T07:26:52.403Z,30.50
2018-04-24T07:29:20.264Z,30.10
2018-04-24T07:31:48.141Z,29.90
2018-04-24T07:34:15.994Z,29.70
2018-04-24T07:36:43.861Z,29.50
2018-04-24T07:39:11.725Z,29.40
2018-04-24T07:41:39.586Z,29.40
2018-04-24T07:44:07.449Z,29.30
2018-04-24T07:46:35.347Z,29.20
2018-04-24T07:49:03.178Z,29.10
2018-04-24T07:51:31.009Z,28.90
2018-04-24T07:53:58.906Z,28.70
2018-04-24T07:56:26.772Z,28.60
2018-04-24T07:58:55.353Z,28.60
2018-04-24T08:01:23.222Z,28.50
2018-04-24T08:03:51.078Z,28.50
2018-04-24T08:06:18.943Z,28.40
2018-04-24T08:08:46.808Z,28.40
2018-04-24T08:11:14.671Z,28.30
2018-04-24T08:13:42.535Z,28.30
2018-04-24T08:16:10.400Z,28.20
2018-04-24T08:18:38.263Z,28.20
2018-04-24T08:21:06.127Z,28.10
2018-04-24T08:23:33.992Z,28.10
2018-04-24T08:26:01.855Z,28.00
2018-04-24T08:28:29.720Z,28.10
2018-04-24T08:30:57.586Z,28.10
2018-04-24T08:33:25.454Z,28.00
2018-04-24T08:35:53.319Z,28.00
2018-04-24T08:38:21.995Z,28.00
2018-04-24T08:40:49.865Z,27.90
2018-04-24T08:43:17.731Z,27.80
2018-04-24T08:45:45.552Z,27.80
2018-04-24T08:48:13.559Z,27.70
2018-04-24T08:50:41.426Z,27.60
2018-04-24T08:53:09.285Z,27.60
2018-04-24T08:55:37.150Z,27.50
2018-04-24T08:58:04.977Z,27.50
2018-04-24T09:00:32.874Z,27.40
2018-04-24T09:03:00.739Z,27.40
2018-04-24T09:05:28.604Z,27.30
2018-04-24T09:07:56.466Z,27.20
2018-04-24T09:10:24.332Z,27.30
2018-04-24T09:12:52.196Z,27.30
2018-04-24T09:15:20.030Z,27.30
2018-04-24T09:17:47.824Z,27.20
2018-04-24T09:20:15.686Z,27.10
2018-04-24T09:22:43.548Z,27.10
2018-04-24T09:25:11.422Z,27.00
2018-04-24T09:27:39.275Z,27.00
2018-04-24T09:30:07.142Z,27.00
2018-04-24T09:32:34.968Z,26.90
2018-04-24T09:35:02.774Z,26.90
2018-04-24T09:37:30.835Z,26.90
2018-04-24T09:39:58.699Z,26.90
2018-04-24T09:42:26.565Z,26.90
2018-04-24T09:44:54.428Z,26.90
2018-04-24T09:47:22.292Z,26.90
2018-04-24T09:49:50.174Z,26.90
2018-04-24T09:52:18.021Z,26.90
2018-04-24T09:54:45.895Z,26.90
2018-04-24T09:57:13.747Z,26.90
2018-04-24T09:59:41.612Z,27.00
2018-04-24T10:02:09.518Z,26.90
2018-04-24T10:04:37.340Z,26.90
2018-04-24T10:07:05.205Z,27.00
2018-04-24T10:09:33.068Z,27.00
2018-04-24T10:12:00.906Z,27.00
2018-04-24T10:14:28.798Z,27.00
2018-04-24T10:16:56.662Z,27.10
2018-04-24T10:19:24.524Z,27.10
2018-04-24T10:21:52.491Z,27.10
2018-04-24T10:24:20.359Z,27.10
2018-04-24T10:26:48.220Z,27.20
2018-04-24T10:29:16.288Z,27.20
2018-04-24T10:31:44.156Z,27.10
2018-04-24T10:34:12.017Z,27.10
2018-04-24T10:36:40.719Z,27.00
2018-04-24T10:39:08.564Z,27.00
2018-04-24T10:41:36.431Z,26.90
2018-04-24T10:44:04.292Z,27.00
2018-04-24T10:46:32.156Z,27.00
2018-04-24T10:49:00.027Z,27.00
2018-04-24T10:51:27.889Z,27.00
2018-04-24T10:53:56.577Z,27.00
2018-04-24T10:56:24.436Z,27.10
2018-04-24T10:58:52.298Z,27.10
2018-04-24T11:01:20.166Z,27.10
2018-04-24T11:03:48.027Z,27.10
2018-04-24T11:06:15.891Z,27.10
2018-04-24T11:08:43.753Z,27.20
2018-04-24T11:11:11.617Z,27.20
2018-04-24T11:13:39.482Z,27.20
2018-04-24T11:16:07.309Z,27.20
2018-04-24T11:18:35.209Z,27.20
2018-04-24T11:21:03.075Z,27.20
2018-04-24T11:23:30.940Z,27.20
2018-04-24T11:25:58.804Z,27.20
2018-04-24T11:28:26.675Z,27.10
2018-04-24T11:30:54.533Z,27.20
2018-04-24T11:33:22.404Z,27.10
2018-04-24T11:35:50.672Z,27.10
2018-04-24T11:38:18.535Z,27.20
2018-04-24T11:40:46.401Z,27.20
2018-04-24T11:43:14.263Z,27.20
2018-04-24T11:45:42.130Z,27.10
2018-04-24T11:48:09.992Z,27.10
2018-04-24T11:50:37.857Z,27.10
2018-04-24T11:53:05.724Z,27.10
2018-04-24T11:55:33.587Z,27.10
2018-04-24T11:58:01.454Z,27.10
2018-04-24T12:00:29.314Z,27.00
2018-04-24T12:02:57.234Z,27.10
2018-04-24T12:05:25.142Z,27.10
2018-04-24T12:07:53.006Z,27.10
2018-04-24T12:10:20.835Z,27.10
2018-04-24T12:12:48.735Z,27.10
2018-04-24T12:15:16.599Z,27.10
2018-04-24T12:17:44.462Z,27.10
2018-04-24T12:20:12.325Z,27.10
2018-04-24T12:22:40.190Z,27.10
2018-04-24T12:25:08.056Z,27.10
2018-04-24T12:27:35.925Z,27.10
2018-04-24T12:30:03.784Z,27.10
2018-04-24T12:32:31.647Z,27.10
2018-04-24T12:34:59.514Z,27.00
2018-04-24T12:37:27.378Z,27.00
2018-04-24T12:39:55.246Z,27.00
2018-04-24T12:42:23.106Z,27.00
2018-04-24T12:44:50.970Z,27.10
2018-04-24T12:47:18.834Z,27.10
2018-04-24T12:49:46.698Z,27.10
2018-04-24T12:52:14.564Z,27.10
2018-04-24T12:54:42.427Z,27.10
2018-04-24T12:57:10.394Z,27.10
2018-04-24T12:59:38.258Z,27.10
2018-04-24T13:02:06.126Z,27.10
2018-04-24T13:04:34.064Z,27.10
2018-04-24T13:07:01.852Z,27.00
2018-04-24T13:09:29.714Z,27.00
2018-04-24T13:11:57.580Z,27.10
2018-04-24T13:14:25.442Z,27.00
2018-04-24T13:16:53.306Z,27.00
2018-04-24T13:19:21.172Z,27.00
2018-04-24T13:21:49.036Z,27.00
2018-04-24T13:24:16.869Z,27.00
2018-04-24T13:26:44.764Z,26.90
2018-04-24T13:29:12.630Z,27.00
2018-04-24T13:31:40.497Z,26.90
2018-04-24T13:34:08.357Z,26.90
2018-04-24T13:36:36.323Z,26.90
2018-04-24T13:39:04.189Z,26.90
2018-04-24T13:41:32.050Z,26.90
2018-04-24T13:43:59.916Z,26.80
2018-04-24T13:46:27.780Z,26.90
2018-04-24T13:48:55.648Z,26.80
2018-04-24T13:51:23.511Z,26.80
2018-04-24T13:53:51.373Z,26.80
2018-04-24T13:56:19.237Z,26.80
2018-04-24T13:58:47.101Z,26.80
2018-04-24T14:01:14.972Z,26.80
2018-04-24T14:03:42.794Z,26.80
2018-04-24T14:06:10.590Z,26.80
2018-04-24T14:08:38.455Z,26.80
2018-04-24T14:11:06.323Z,26.80
2018-04-24T14:13:34.183Z,26.80
2018-04-24T14:16:02.049Z,26.80
2018-04-24T14:18:29.910Z,26.80
2018-04-24T14:20:57.780Z,26.70
2018-04-24T14:23:25.640Z,26.70
2018-04-24T14:25:53.507Z,26.70
2018-04-24T14:28:21.367Z,26.70
2018-04-24T14:30:49.231Z,26.70
2018-04-24T14:33:17.097Z,26.70
2018-04-24T14:35:44.831Z,26.60
2018-04-24T14:38:12.622Z,26.60
2018-04-24T14:40:40.484Z,26.70
2018-04-24T14:43:08.348Z,26.70
2018-04-24T14:45:36.214Z,26.60
2018-04-24T14:48:04.080Z,26.50
2018-04-24T14:50:31.941Z,26.50
2018-04-24T14:52:59.806Z,26.50
2018-04-24T14:55:27.668Z,26.50
2018-04-24T14:57:55.537Z,26.50
2018-04-24T15:00:23.398Z,26.50
2018-04-24T15:02:51.336Z,26.40
2018-04-24T15:05:19.127Z,26.50
2018-04-24T15:07:46.992Z,26.50
2018-04-24T15:10:14.829Z,26.50
2018-04-24T15:12:42.616Z,26.50
2018-04-24T15:15:10.445Z,26.50
2018-04-24T15:17:38.343Z,26.50
2018-04-24T15:20:06.207Z,26.40
2018-04-24T15:22:34.071Z,26.40
2018-04-24T15:25:01.939Z,26.40
2018-04-24T15:27:30.282Z,26.30
2018-04-24T15:29:58.180Z,26.30
2018-04-24T15:32:26.048Z,26.30
2018-04-24T15:34:53.979Z,26.30
2018-04-24T15:37:21.769Z,26.20
2018-04-24T15:39:49.632Z,26.20
2018-04-24T15:42:18.421Z,26.20
2018-04-24T15:44:46.282Z,26.10
2018-04-24T15:47:14.146Z,26.20
2018-04-24T15:49:42.015Z,26.10
2018-04-24T15:52:09.873Z,26.10
2018-04-24T15:54:37.839Z,26.10
2018-04-24T15:57:05.705Z,26.00
2018-04-24T15:59:33.568Z,26.00
2018-04-24T16:02:01.432Z,26.00
2018-04-24T16:04:29.284Z,25.90
2018-04-24T16:06:57.160Z,26.00
2018-04-24T16:09:25.024Z,25.90
2018-04-24T16:11:52.901Z,25.80
2018-04-24T16:14:20.753Z,25.80
2018-04-24T16:16:48.616Z,25.80
2018-04-24T16:19:16.501Z,25.80
2018-04-24T16:21:45.062Z,25.70
2018-04-24T16:24:12.911Z,25.60
2018-04-24T16:26:40.752Z,25.60
2018-04-24T16:29:08.553Z,25.60
2018-04-24T16:31:36.416Z,25.50
2018-04-24T16:34:04.491Z,25.50
2018-04-24T16:36:32.312Z,25.40
2018-04-24T16:39:02.912Z,25.30
2018-04-24T16:41:31.455Z,25.30
2018-04-24T16:43:59.216Z,25.20
2018-04-24T16:46:27.087Z,25.30
2018-04-24T16:48:54.945Z,25.20
2018-04-24T16:51:22.828Z,25.20
2018-04-24T16:53:51.241Z,25.10
2018-04-24T16:56:19.084Z,25.10
2018-04-24T16:58:47.840Z,25.00
2018-04-24T17:01:15.807Z,25.00
2018-04-24T17:03:44.896Z,25.00
2018-04-24T17:06:12.729Z,25.00
2018-04-24T17:08:40.844Z,25.00
2018-04-24T17:11:09.621Z,25.00
2018-04-24T17:13:37.489Z,25.00
2018-04-24T17:16:05.346Z,24.90
2018-04-24T17:18:33.312Z,24.90
2018-04-24T17:21:01.276Z,24.90
2018-04-24T17:23:29.147Z,24.90
2018-04-24T17:25:58.030Z,24.80
2018-04-24T17:28:25.902Z,24.80
2018-04-24T17:30:53.804Z,24.80
2018-04-24T17:33:21.619Z,24.80
2018-04-24T17:35:50.098Z,24.80
2018-04-24T17:38:17.991Z,24.70
2018-04-24T17:40:45.837Z,24.70
2018-04-24T17:43:13.694Z,24.70
2018-04-24T17:45:41.555Z,24.70
2018-04-24T17:48:09.316Z,24.60
2018-04-24T17:50:37.182Z,24.60
2018-04-24T17:53:05.047Z,24.60
2018-04-24T17:55:32.911Z,24.50
2018-04-24T17:58:00.746Z,24.60
2018-04-24T18:00:29.164Z,24.50
2018-04-24T18:02:57.835Z,24.60
2018-04-24T18:05:25.705Z,24.60
2018-04-24T18:07:53.562Z,24.60
2018-04-24T18:10:21.529Z,24.60
2018-04-24T18:12:49.805Z,24.60
2018-04-24T18:15:17.856Z,24.50
2018-04-24T19:07:32.207Z,24.10
2018-04-24T19:10:00.036Z,24.10
2018-04-24T19:12:27.829Z,24.10
2018-04-24T19:14:55.695Z,24.10
2018-04-24T19:17:23.561Z,24.10
2018-04-24T19:19:51.423Z,24.10
2018-04-24T19:22:19.284Z,24.20
2018-04-24T19:24:53.088Z,24.20
2018-04-24T19:27:21.774Z,24.20
2018-04-24T19:29:49.715Z,24.20
2018-04-24T19:32:23.236Z,24.10
2018-04-24T19:34:51.098Z,24.20
2018-04-24T19:37:19.067Z,24.10
2018-04-24T19:39:52.562Z,24.10
2018-04-24T19:42:20.530Z,24.10
2018-04-24T19:44:48.395Z,24.00
2018-04-24T19:47:16.258Z,24.00
2018-04-24T19:49:49.518Z,24.00
2018-04-24T19:52:17.313Z,24.00
2018-04-24T19:54:50.669Z,24.00
2018-04-24T19:57:18.469Z,23.90
2018-04-24T19:59:46.221Z,23.90
2018-04-24T20:02:13.956Z,23.80
2018-04-24T20:04:41.754Z,23.80
2018-04-24T20:07:09.524Z,23.80
2018-04-24T20:09:37.250Z,23.80
2018-04-24T20:12:05.028Z,23.70
2018-04-24T20:14:32.767Z,23.70
2018-04-24T20:17:00.496Z,23.70
2018-04-24T20:19:28.280Z,23.70
2018-04-24T20:21:56.011Z,23.70
2018-04-24T20:24:23.747Z,23.70
2018-04-24T20:26:51.535Z,23.70
2018-04-24T20:29:20.084Z,23.70
2018-04-24T20:31:47.845Z,23.70
2018-04-24T20:34:15.708Z,23.70
2018-04-24T20:36:43.574Z,23.70
2018-04-24T20:51:27.024Z,23.90
2018-04-24T20:53:54.822Z,24.00
2018-04-24T20:56:22.647Z,24.00
2018-04-24T20:58:50.552Z,24.00
2018-04-24T21:01:49.399Z,24.00
2018-04-24T21:04:17.307Z,24.00
2018-04-24T21:06:45.174Z,24.00
2018-04-24T21:09:13.857Z,24.10
2018-04-24T21:11:41.719Z,24.10
2018-04-24T21:14:09.582Z,24.10
2018-04-24T21:16:37.446Z,24.10
2018-04-24T21:19:05.374Z,24.10
2018-04-24T21:21:33.177Z,24.10
2018-04-24T21:24:01.041Z,24.10
2018-04-24T21:26:28.902Z,24.10
2018-04-24T21:28:57.074Z,24.00
2018-04-24T21:31:24.940Z,24.00
2018-04-24T21:33:52.803Z,24.00
2018-04-24T21:36:21.339Z,24.00
2018-04-24T21:38:49.211Z,24.00
2018-04-24T21:41:17.167Z,24.00
2018-04-24T21:43:44.975Z,24.00
2018-04-24T21:46:12.845Z,24.00
2018-04-24T21:48:40.705Z,23.90
2018-04-24T21:51:08.570Z,23.90
2018-04-24T21:53:36.432Z,24.00
2018-04-24T21:56:04.300Z,23.90
2018-04-24T21:58:32.163Z,23.90
2018-04-24T22:01:00.027Z,23.90
2018-04-24T22:03:28.095Z,23.90
2018-04-24T22:05:55.856Z,23.90
2018-04-24T22:08:23.721Z,23.90
2018-04-24T22:10:51.595Z,23.90
2018-04-24T22:13:20.210Z,23.80
2018-04-24T22:15:48.029Z,23.80
2018-04-24T22:18:15.894Z,23.80
2018-04-24T22:20:43.758Z,23.80
2018-04-24T22:23:11.621Z,23.80
2018-04-24T22:25:39.590Z,23.80
2018-04-24T22:28:07.454Z,23.70
2018-04-24T22:30:35.216Z,23.70
2018-04-24T22:33:07.385Z,23.70
2018-04-24T22:35:35.347Z,23.70
2018-04-24T22:38:14.312Z,23.70
2018-04-24T22:40:54.907Z,23.60
2018-04-24T22:43:33.032Z,23.70
2018-04-24T22:46:00.902Z,23.70
2018-04-24T22:48:39.785Z,23.70
2018-04-24T22:51:19.234Z,23.70
2018-04-24T22:54:00.738Z,23.70
2018-04-24T22:56:39.616Z,23.60
2018-04-24T22:59:19.243Z,23.60
2018-04-24T23:01:59.680Z,23.60
2018-04-24T23:04:40.927Z,23.60
2018-04-24T23:07:08.809Z,23.60
2018-04-24T23:09:36.774Z,23.60
2018-04-24T23:12:16.516Z,23.60
2018-04-24T23:14:56.181Z,23.50
2018-04-24T23:17:35.744Z,23.50
2018-04-24T23:20:16.055Z,23.50
2018-04-24T23:22:43.914Z,23.50
2018-04-24T23:25:11.685Z,23.50
2018-04-24T23:27:39.671Z,23.50
2018-04-24T23:30:07.506Z,23.50
2018-04-24T23:32:35.370Z,23.50
2018-04-24T23:35:03.203Z,23.50
2018-04-24T23:37:31.100Z,23.50
2018-04-24T23:39:58.964Z,23.50
2018-04-24T23:42:26.829Z,23.50
2018-04-24T23:44:54.691Z,23.50
2018-04-24T23:47:22.555Z,23.50
2018-04-24T23:49:50.423Z,23.40
2018-04-24T23:52:18.285Z,23.50
2018-04-24T23:54:46.148Z,23.50
2018-04-24T23:57:14.013Z,23.40
2018-04-24T23:59:41.877Z,23.50
